Time;durP1;ratioP1;P1;durP2;ratioP2;P2;SDS_P1;SDS_P2;PMS_P1;PMS_P2;Temp;Humidity;BMP_temperature;BMP_pressure;BME280_temperature;BME280_humidity;BME280_pressure;Samples;Min_cycle;Max_cycle;Signal;HPM_P1;HPM_P2
2021/01/23 00:00:19;;;;;;;10.37;6.30;;;5.20;99.90;;;;;;5119395;28;20179;-86
2021/01/23 00:02:45;;;;;;;11.30;6.63;;;5.20;99.90;;;;;;5122791;28;20173;-86
2021/01/23 00:05:11;;;;;;;9.73;6.50;;;5.20;99.90;;;;;;5111341;28;20214;-88
2021/01/23 00:07:36;;;;;;;13.43;7.40;;;5.30;99.90;;;;;;5098892;28;20163;-86
2021/01/23 00:10:04;;;;;;;12.03;6.57;;;5.20;99.90;;;;;;5097025;28;20650;-85
2021/01/23 00:12:29;;;;;;;14.13;6.83;;;5.30;99.90;;;;;;5097845;28;20206;-87
2021/01/23 00:14:55;;;;;;;10.47;6.10;;;5.30;99.90;;;;;;5106541;28;20163;-86
2021/01/23 00:17:20;;;;;;;10.90;6.90;;;5.30;99.90;;;;;;5102208;28;20623;-86
2021/01/23 00:19:46;;;;;;;9.87;6.40;;;5.30;99.90;;;;;;5102713;28;20179;-86
2021/01/23 00:22:12;;;;;;;10.07;6.50;;;5.30;99.90;;;;;;5102221;28;20171;-86
2021/01/23 00:24:37;;;;;;;8.77;6.50;;;5.30;99.90;;;;;;5097800;28;20178;-88
2021/01/23 00:27:03;;;;;;;9.50;6.53;;;5.30;99.90;;;;;;5097842;28;20262;-86
2021/01/23 00:29:29;;;;;;;11.23;6.70;;;5.30;99.90;;;;;;5102881;28;20166;-88
2021/01/23 00:31:55;;;;;;;9.57;6.40;;;5.20;99.90;;;;;;5086408;28;20220;-87
2021/01/23 00:34:20;;;;;;;11.13;6.60;;;5.30;99.90;;;;;;5096875;28;20182;-85
2021/01/23 00:36:46;;;;;;;13.87;7.27;;;5.30;99.90;;;;;;5097036;28;20585;-87
2021/01/23 00:39:12;;;;;;;10.50;6.90;;;5.30;99.90;;;;;;5095957;28;20174;-86
2021/01/23 00:41:37;;;;;;;9.70;6.13;;;5.40;99.90;;;;;;5097190;28;20652;-87
2021/01/23 00:44:03;;;;;;;10.93;6.33;;;5.40;99.90;;;;;;5096963;28;20680;-86
2021/01/23 00:46:29;;;;;;;10.90;6.43;;;5.50;99.90;;;;;;5096885;28;20182;-87
2021/01/23 00:48:54;;;;;;;8.80;6.00;;;5.80;99.90;;;;;;5096970;28;20234;-87
2021/01/23 00:51:20;;;;;;;10.03;5.60;;;5.60;99.90;;;;;;5097206;28;20244;-86
2021/01/23 00:53:47;;;;;;;7.77;5.80;;;5.60;99.90;;;;;;5099251;28;20211;-87
2021/01/23 00:56:13;;;;;;;10.63;5.27;;;5.60;99.90;;;;;;5096796;28;20261;-87
2021/01/23 00:58:39;;;;;;;10.60;5.97;;;5.60;99.90;;;;;;5096823;28;20606;-86
2021/01/23 01:01:05;;;;;;;10.57;5.60;;;5.60;99.90;;;;;;5096702;28;20171;-87
2021/01/23 01:03:32;;;;;;;8.53;5.40;;;5.60;99.90;;;;;;5096732;28;20179;-86
2021/01/23 01:05:58;;;;;;;12.40;5.83;;;5.60;99.90;;;;;;5096514;28;20631;-85
2021/01/23 01:08:23;;;;;;;8.33;5.40;;;5.60;99.90;;;;;;5096259;28;20232;-86
2021/01/23 01:10:49;;;;;;;8.90;4.83;;;5.70;99.90;;;;;;5096551;28;20174;-86
2021/01/23 01:13:15;;;;;;;9.47;5.00;;;5.60;99.90;;;;;;5096308;28;20291;-86
2021/01/23 01:15:41;;;;;;;8.53;5.33;;;5.60;99.90;;;;;;5096401;28;20178;-87
2021/01/23 01:18:08;;;;;;;9.33;5.73;;;5.60;99.90;;;;;;5096251;28;20214;-85
2021/01/23 01:20:34;;;;;;;10.13;5.47;;;5.60;99.90;;;;;;5096182;28;20184;-86
2021/01/23 01:23:00;;;;;;;9.90;4.97;;;5.70;99.90;;;;;;5096103;28;20199;-88
2021/01/23 01:25:26;;;;;;;10.23;5.53;;;5.70;99.90;;;;;;5096237;28;20174;-86
2021/01/23 01:27:52;;;;;;;12.10;5.30;;;5.80;99.90;;;;;;5096431;28;20250;-85
2021/01/23 01:30:18;;;;;;;9.00;4.87;;;5.70;99.90;;;;;;5096182;28;20708;-86
2021/01/23 01:32:44;;;;;;;11.67;5.23;;;5.70;99.90;;;;;;5096087;28;20198;-85
2021/01/23 01:35:09;;;;;;;9.83;5.70;;;5.70;99.90;;;;;;5096332;28;20221;-85
2021/01/23 01:37:35;;;;;;;11.77;5.57;;;5.70;99.90;;;;;;5096140;28;20181;-85
2021/01/23 01:40:03;;;;;;;9.83;5.03;;;5.80;99.90;;;;;;5096127;28;20273;-86
2021/01/23 01:42:29;;;;;;;7.50;5.17;;;6.00;99.90;;;;;;5095825;28;20224;-86
2021/01/23 01:44:55;;;;;;;10.33;5.27;;;5.90;99.90;;;;;;5096106;28;20213;-86
2021/01/23 01:47:21;;;;;;;7.90;5.10;;;6.00;99.90;;;;;;5095843;28;20182;-85
2021/01/23 01:49:48;;;;;;;9.63;4.90;;;5.80;99.90;;;;;;5095531;28;20187;-85
2021/01/23 01:52:15;;;;;;;9.77;5.30;;;5.90;99.90;;;;;;5095583;28;20199;-86
2021/01/23 01:54:40;;;;;;;10.47;5.00;;;5.80;99.90;;;;;;5095691;28;20175;-86
2021/01/23 01:57:06;;;;;;;7.40;4.70;;;5.80;99.90;;;;;;5095807;28;20173;-85
2021/01/23 01:59:32;;;;;;;8.60;5.43;;;5.80;99.90;;;;;;5095913;28;20537;-85
2021/01/23 02:02:11;;;;;;;12.70;5.50;;;5.80;99.90;;;;;;5095441;28;20167;-87
2021/01/23 02:04:50;;;;;;;8.80;5.43;;;5.80;99.90;;;;;;5096119;28;20178;-86
2021/01/23 02:07:33;;;;;;;8.87;5.30;;;5.90;99.90;;;;;;5096358;28;20171;-86
2021/01/23 02:10:02;;;;;;;10.27;5.23;;;5.90;99.90;;;;;;5095536;28;20190;-85
2021/01/23 02:12:47;;;;;;;14.40;6.20;;;5.80;99.90;;;;;;5095218;28;20206;-86
2021/01/23 02:15:20;;;;;;;9.57;6.57;;;5.90;99.90;;;;;;5095608;28;20233;-87
2021/01/23 02:18:02;;;;;;;10.70;5.10;;;5.90;99.90;;;;;;5095291;28;20167;-86
2021/01/23 02:20:49;;;;;;;8.23;5.20;;;5.90;99.90;;;;;;5095491;28;20179;-85
2021/01/23 02:23:22;;;;;;;7.70;5.20;;;5.80;99.90;;;;;;5095546;28;20285;-85
2021/01/23 02:26:18;;;;;;;8.97;4.80;;;5.80;99.90;;;;;;5095373;28;20181;-86
2021/01/23 02:29:04;;;;;;;9.33;5.13;;;5.80;99.90;;;;;;5095371;28;20262;-86
2021/01/23 02:31:40;;;;;;;9.00;5.30;;;5.70;99.90;;;;;;5095506;28;20178;-86
2021/01/23 02:34:09;;;;;;;8.60;5.47;;;5.70;99.90;;;;;;5095169;28;20202;-87
2021/01/23 02:36:38;;;;;;;7.73;5.23;;;5.80;99.90;;;;;;5095005;28;20205;-86
2021/01/23 02:39:04;;;;;;;10.60;4.97;;;5.80;99.90;;;;;;5095678;28;20635;-86
2021/01/23 02:41:30;;;;;;;8.70;4.83;;;5.70;99.90;;;;;;5095340;28;20170;-86
2021/01/23 02:43:56;;;;;;;9.93;5.33;;;5.90;99.90;;;;;;5095416;28;20179;-86
2021/01/23 02:46:22;;;;;;;7.17;4.90;;;5.80;99.90;;;;;;5095248;28;20224;-86
2021/01/23 02:48:48;;;;;;;8.03;5.20;;;5.70;99.90;;;;;;5095312;28;20269;-86
2021/01/23 02:51:33;;;;;;;9.17;5.00;;;5.60;99.90;;;;;;5095331;28;20168;-85
2021/01/23 02:54:30;;;;;;;9.70;4.93;;;5.60;99.90;;;;;;5095192;28;20210;-86
2021/01/23 02:57:00;;;;;;;7.47;4.90;;;5.60;99.90;;;;;;5089490;28;20179;-86
2021/01/23 02:59:27;;;;;;;11.13;5.30;;;5.90;99.90;;;;;;5095681;28;20215;-86
2021/01/23 03:01:53;;;;;;;9.73;5.07;;;5.60;99.90;;;;;;5096041;28;20262;-86
2021/01/23 03:04:20;;;;;;;8.40;4.50;;;5.50;99.90;;;;;;5099001;28;20289;-87
2021/01/23 03:06:47;;;;;;;10.23;4.90;;;5.50;99.90;;;;;;5099164;28;20170;-87
2021/01/23 03:09:22;;;;;;;7.47;4.90;;;5.50;99.90;;;;;;5098855;28;20522;-87
2021/01/23 03:11:49;;;;;;;9.07;5.33;;;5.50;99.90;;;;;;5099030;28;20175;-86
2021/01/23 03:14:16;;;;;;;8.60;5.17;;;5.40;99.90;;;;;;5098855;28;20289;-86
2021/01/23 03:16:49;;;;;;;10.50;5.00;;;5.40;99.90;;;;;;5099018;28;20178;-86
2021/01/23 03:19:15;;;;;;;11.03;4.63;;;5.40;99.90;;;;;;5098581;28;20215;-85
2021/01/23 03:21:42;;;;;;;8.13;4.90;;;5.40;99.90;;;;;;5098827;28;20198;-86
2021/01/23 03:24:08;;;;;;;8.57;4.77;;;5.40;99.90;;;;;;5098398;28;20202;-86
2021/01/23 03:26:35;;;;;;;8.80;4.73;;;5.50;99.90;;;;;;5098750;28;20167;-86
2021/01/23 03:29:01;;;;;;;9.67;4.90;;;5.50;99.90;;;;;;5098539;28;20638;-86
2021/01/23 03:31:26;;;;;;;6.63;4.77;;;5.60;99.90;;;;;;5098751;28;20224;-86
2021/01/23 03:33:52;;;;;;;8.53;4.77;;;5.50;99.90;;;;;;5098008;28;20730;-86
2021/01/23 03:36:17;;;;;;;7.17;4.63;;;5.50;99.90;;;;;;5098226;28;20175;-86
2021/01/23 03:38:43;;;;;;;8.93;4.60;;;5.40;99.90;;;;;;5116306;28;20194;-86
2021/01/23 03:41:09;;;;;;;9.43;5.13;;;5.40;99.90;;;;;;5098513;28;20175;-85
2021/01/23 03:43:34;;;;;;;7.83;5.30;;;5.60;99.90;;;;;;5099120;28;20171;-86
2021/01/23 03:46:00;;;;;;;8.00;4.70;;;5.40;99.90;;;;;;5098463;28;20185;-86
2021/01/23 03:48:25;;;;;;;9.87;5.93;;;5.30;99.90;;;;;;5097883;28;20175;-86
2021/01/23 03:50:51;;;;;;;10.33;4.97;;;5.40;99.90;;;;;;5098258;28;20178;-86
2021/01/23 03:53:18;;;;;;;9.20;5.37;;;5.30;99.90;;;;;;5098090;28;20215;-87
2021/01/23 03:55:43;;;;;;;9.17;4.93;;;5.30;99.90;;;;;;5097992;28;20269;-85
2021/01/23 03:58:09;;;;;;;9.93;5.57;;;5.30;99.90;;;;;;5098264;28;20665;-86
2021/01/23 04:00:35;;;;;;;10.20;5.60;;;5.20;99.90;;;;;;5098086;28;20170;-87
2021/01/23 04:03:00;;;;;;;10.33;6.33;;;5.20;99.90;;;;;;5097626;28;20182;-86
2021/01/23 04:05:26;;;;;;;9.93;5.83;;;5.30;99.90;;;;;;5097522;28;20213;-85
2021/01/23 04:07:51;;;;;;;11.43;6.00;;;5.20;99.90;;;;;;5098150;28;20607;-86
2021/01/23 04:10:17;;;;;;;10.70;6.77;;;5.20;99.90;;;;;;5097718;28;20666;-86
2021/01/23 04:12:43;;;;;;;10.80;5.90;;;5.20;99.90;;;;;;5097561;28;20700;-87
2021/01/23 04:15:09;;;;;;;11.50;5.40;;;5.20;99.90;;;;;;5097543;28;20266;-86
2021/01/23 04:17:34;;;;;;;10.30;6.07;;;5.20;99.90;;;;;;5096824;28;20175;-85
2021/01/23 04:20:00;;;;;;;13.30;7.30;;;5.20;99.90;;;;;;5097383;28;20343;-86
2021/01/23 04:22:25;;;;;;;12.30;6.70;;;5.20;99.90;;;;;;5097629;28;20175;-86
2021/01/23 04:24:51;;;;;;;11.73;6.77;;;5.20;99.90;;;;;;5102890;28;20178;-88
2021/01/23 04:27:17;;;;;;;14.67;7.20;;;5.20;99.90;;;;;;5121900;28;20175;-84
2021/01/23 04:29:43;;;;;;;12.57;7.37;;;5.10;99.90;;;;;;5117131;28;20167;-86
2021/01/23 04:32:10;;;;;;;12.63;7.53;;;5.10;99.90;;;;;;5097556;28;20642;-85
2021/01/23 04:34:37;;;;;;;14.17;8.10;;;5.10;99.90;;;;;;5097392;28;20182;-85
2021/01/23 04:37:03;;;;;;;12.33;8.03;;;5.10;99.90;;;;;;5097289;28;20178;-86
2021/01/23 04:39:28;;;;;;;12.53;7.33;;;5.00;99.90;;;;;;5097375;28;20162;-86
2021/01/23 04:41:54;;;;;;;12.37;7.90;;;5.10;99.90;;;;;;5097016;28;20643;-85
2021/01/23 04:44:20;;;;;;;15.53;7.53;;;5.00;99.90;;;;;;5097159;28;20184;-86
2021/01/23 04:46:45;;;;;;;16.10;7.97;;;5.00;99.90;;;;;;5114896;28;20213;-86
2021/01/23 04:49:12;;;;;;;13.90;7.70;;;5.00;99.90;;;;;;5097294;28;20186;-86
2021/01/23 04:51:38;;;;;;;16.70;7.60;;;5.00;99.90;;;;;;5097115;28;20219;-86
2021/01/23 04:54:05;;;;;;;13.37;9.10;;;5.00;99.90;;;;;;5096792;28;20221;-87
2021/01/23 04:56:30;;;;;;;16.87;8.17;;;5.10;99.90;;;;;;5096687;28;20179;-86
2021/01/23 04:58:56;;;;;;;15.47;7.73;;;5.00;99.90;;;;;;5096866;28;20271;-87
2021/01/23 05:01:22;;;;;;;15.13;7.53;;;5.00;99.90;;;;;;5096523;28;20266;-86
2021/01/23 05:04:01;;;;;;;15.77;7.27;;;5.00;99.90;;;;;;5096713;28;20206;-86
2021/01/23 05:06:28;;;;;;;13.10;7.43;;;5.00;99.90;;;;;;5096680;28;20368;-87
2021/01/23 05:08:56;;;;;;;15.03;7.40;;;5.00;99.90;;;;;;5096521;28;20196;-86
2021/01/23 05:11:22;;;;;;;13.80;7.50;;;5.00;99.90;;;;;;5096869;28;20235;-86
2021/01/23 05:14:11;;;;;;;14.10;6.80;;;5.00;99.90;;;;;;5097082;28;20212;-86
2021/01/23 05:16:37;;;;;;;15.03;7.17;;;5.20;99.90;;;;;;5096459;28;20182;-87
2021/01/23 05:19:04;;;;;;;17.33;7.77;;;5.00;99.90;;;;;;5096388;28;20182;-87
2021/01/23 05:21:30;;;;;;;13.97;7.50;;;5.10;99.90;;;;;;5096477;28;20532;-87
2021/01/23 05:24:11;;;;;;;11.50;7.13;;;5.00;99.90;;;;;;5096553;28;20542;-86
2021/01/23 05:26:38;;;;;;;13.50;6.70;;;5.10;99.90;;;;;;5095729;28;20197;-86
2021/01/23 05:29:10;;;;;;;11.87;6.90;;;5.00;99.90;;;;;;5096070;28;20174;-86
2021/01/23 05:31:36;;;;;;;12.57;7.53;;;4.90;99.90;;;;;;5097702;28;20274;-87
2021/01/23 05:34:22;;;;;;;12.27;7.27;;;4.80;99.90;;;;;;5096260;28;20570;-86
2021/01/23 05:36:47;;;;;;;12.13;7.63;;;4.80;99.90;;;;;;5095917;28;20175;-87
2021/01/23 05:39:13;;;;;;;10.67;6.47;;;4.80;99.90;;;;;;5096206;28;20167;-87
2021/01/23 05:41:39;;;;;;;12.20;6.80;;;4.80;99.90;;;;;;5096135;28;20187;-86
2021/01/23 05:44:11;;;;;;;11.93;7.17;;;4.80;99.90;;;;;;5095971;28;20171;-86
2021/01/23 05:46:37;;;;;;;16.00;7.20;;;4.80;99.90;;;;;;5096187;28;20174;-85
2021/01/23 05:49:03;;;;;;;11.57;6.50;;;4.80;99.90;;;;;;5096241;28;20650;-86
2021/01/23 05:51:29;;;;;;;13.87;6.97;;;4.90;99.90;;;;;;5114415;28;20178;-87
2021/01/23 05:53:54;;;;;;;11.07;7.27;;;4.80;99.90;;;;;;5095735;28;20679;-86
2021/01/23 05:56:21;;;;;;;12.53;6.57;;;4.80;99.90;;;;;;5095861;28;20171;-85
2021/01/23 05:58:46;;;;;;;12.70;6.73;;;4.80;99.90;;;;;;5095771;28;20171;-85
2021/01/23 06:01:20;;;;;;;13.93;7.20;;;4.70;99.90;;;;;;5095822;28;20646;-86
2021/01/23 06:03:51;;;;;;;12.43;7.00;;;4.70;99.90;;;;;;5096316;28;20171;-85
2021/01/23 06:06:17;;;;;;;13.30;7.03;;;4.70;99.90;;;;;;5099509;28;20177;-86
2021/01/23 06:08:51;;;;;;;12.37;6.90;;;4.70;99.90;;;;;;5100090;28;20190;-87
2021/01/23 06:11:19;;;;;;;13.97;6.97;;;4.80;99.90;;;;;;5097995;28;20182;-86
2021/01/23 06:13:55;;;;;;;10.13;5.97;;;4.80;99.90;;;;;;5096163;28;20227;-87
2021/01/23 06:16:44;;;;;;;14.10;7.07;;;4.80;99.90;;;;;;5095715;28;20232;-86
2021/01/23 06:19:16;;;;;;;13.80;7.30;;;4.80;99.90;;;;;;5095560;28;20662;-86
2021/01/23 06:21:44;;;;;;;12.57;7.60;;;4.70;99.90;;;;;;5095729;28;20190;-85
2021/01/23 06:24:10;;;;;;;13.17;7.80;;;4.70;99.90;;;;;;5113694;28;20195;-87
2021/01/23 06:27:05;;;;;;;11.40;7.17;;;4.60;99.90;;;;;;5095557;28;20635;-87
2021/01/23 06:29:44;;;;;;;13.40;6.20;;;4.60;99.90;;;;;;5078580;28;20186;-86
2021/01/23 06:32:19;;;;;;;12.47;7.00;;;4.60;99.90;;;;;;5095343;28;20186;-86
2021/01/23 06:34:54;;;;;;;11.33;6.13;;;4.60;99.90;;;;;;5113700;28;20701;-86
2021/01/23 06:37:39;;;;;;;14.03;6.70;;;4.60;99.90;;;;;;5096376;28;20186;-87
2021/01/23 06:40:27;;;;;;;11.37;6.33;;;4.60;99.90;;;;;;5118238;28;20261;-88
2021/01/23 06:42:55;;;;;;;11.80;6.30;;;4.60;99.90;;;;;;5099672;28;20198;-86
2021/01/23 06:45:23;;;;;;;9.47;6.20;;;4.50;99.90;;;;;;5099825;28;20634;-86
2021/01/23 06:47:54;;;;;;;14.37;7.30;;;4.50;99.90;;;;;;5099310;28;20178;-87
2021/01/23 06:50:33;;;;;;;12.33;6.33;;;4.60;99.90;;;;;;5100020;28;20167;-86
2021/01/23 06:52:59;;;;;;;9.83;6.43;;;4.50;99.90;;;;;;5099361;28;20197;-86
2021/01/23 06:55:53;;;;;;;11.87;6.83;;;4.50;99.90;;;;;;5100100;28;20530;-86
2021/01/23 06:58:23;;;;;;;12.87;5.93;;;4.50;99.90;;;;;;5098663;28;20167;-86
2021/01/23 07:00:52;;;;;;;11.97;6.27;;;4.50;99.90;;;;;;5099165;28;20273;-85
2021/01/23 07:03:19;;;;;;;12.77;5.87;;;4.50;99.90;;;;;;5098656;28;20544;-86
2021/01/23 07:05:53;;;;;;;11.97;6.30;;;4.50;99.90;;;;;;5099181;28;20179;-86
2021/01/23 07:08:33;;;;;;;14.37;6.30;;;4.50;99.90;;;;;;5098481;28;20647;-87
2021/01/23 07:11:10;;;;;;;13.70;6.83;;;4.50;99.90;;;;;;5098730;28;20185;-87
2021/01/23 07:13:38;;;;;;;11.13;6.37;;;4.60;99.90;;;;;;5099069;28;20217;-86
2021/01/23 07:16:04;;;;;;;14.37;6.53;;;4.70;99.90;;;;;;5098969;28;20199;-87
2021/01/23 07:18:30;;;;;;;13.10;6.60;;;4.60;99.90;;;;;;5099134;28;20179;-86
2021/01/23 07:20:56;;;;;;;13.90;7.47;;;4.60;99.90;;;;;;5099390;28;20179;-87
2021/01/23 07:23:22;;;;;;;15.23;7.03;;;4.50;99.90;;;;;;5100939;28;20277;-86
2021/01/23 07:25:49;;;;;;;13.10;6.37;;;4.60;99.90;;;;;;5098589;28;20534;-87
2021/01/23 07:28:19;;;;;;;13.17;6.80;;;4.50;99.90;;;;;;5098593;28;20167;-87
2021/01/23 07:30:45;;;;;;;11.43;7.20;;;4.50;99.90;;;;;;5098909;28;20170;-86
2021/01/23 07:33:11;;;;;;;12.37;6.27;;;4.50;99.90;;;;;;5098404;28;20698;-87
2021/01/23 07:35:38;;;;;;;12.20;6.90;;;4.50;99.90;;;;;;5099603;28;20198;-87
2021/01/23 07:38:05;;;;;;;12.70;6.40;;;4.60;99.90;;;;;;5103357;28;20175;-87
2021/01/23 07:40:38;;;;;;;10.67;6.43;;;4.60;99.90;;;;;;5098715;28;20171;-87
2021/01/23 07:43:05;;;;;;;13.67;7.03;;;4.60;99.90;;;;;;5098894;28;20178;-88
2021/01/23 07:45:32;;;;;;;11.20;6.90;;;4.60;99.90;;;;;;5098153;28;20661;-87
2021/01/23 07:48:03;;;;;;;12.33;6.57;;;4.60;99.90;;;;;;5097781;28;20203;-87
2021/01/23 07:50:43;;;;;;;12.17;6.30;;;4.60;99.90;;;;;;5098047;28;20177;-86
2021/01/23 07:53:24;;;;;;;14.80;7.10;;;4.60;99.90;;;;;;5097485;28;20206;-87
2021/01/23 07:55:52;;;;;;;10.33;6.73;;;4.70;99.90;;;;;;5097847;28;20639;-87
2021/01/23 07:58:18;;;;;;;13.73;6.50;;;4.70;99.90;;;;;;5098124;28;20306;-88
2021/01/23 08:00:45;;;;;;;12.07;6.27;;;4.70;99.90;;;;;;5098536;28;20541;-88
2021/01/23 08:03:11;;;;;;;12.07;6.83;;;4.80;99.90;;;;;;5098437;28;20274;-86
2021/01/23 08:05:45;;;;;;;10.87;6.80;;;4.70;99.90;;;;;;5097648;28;20575;-86
2021/01/23 08:08:13;;;;;;;13.67;6.77;;;4.80;99.90;;;;;;5097618;28;20189;-89
2021/01/23 08:10:39;;;;;;;10.97;6.50;;;4.90;99.90;;;;;;5097398;28;20194;-88
2021/01/23 08:13:06;;;;;;;12.40;7.03;;;4.80;99.90;;;;;;5097671;28;20210;-87
2021/01/23 08:15:35;;;;;;;13.07;7.70;;;4.90;99.90;;;;;;5098936;28;20167;-88
2021/01/23 08:18:02;;;;;;;9.27;7.03;;;4.90;99.90;;;;;;5097931;28;20185;-85
2021/01/23 08:20:34;;;;;;;15.67;7.57;;;5.00;99.90;;;;;;5098329;28;20587;-86
2021/01/23 08:23:04;;;;;;;14.40;7.87;;;5.10;99.90;;;;;;5097656;28;20206;-87
2021/01/23 08:25:32;;;;;;;10.20;6.17;;;5.20;99.90;;;;;;5097053;28;20175;-86
2021/01/23 08:27:58;;;;;;;8.43;6.07;;;5.20;99.90;;;;;;5097667;28;20615;-84
2021/01/23 08:30:27;;;;;;;11.40;6.57;;;5.30;99.90;;;;;;5099022;28;20181;-85
2021/01/23 08:32:54;;;;;;;10.37;7.07;;;5.50;99.90;;;;;;5096622;28;20746;-86
2021/01/23 08:35:20;;;;;;;11.83;6.77;;;5.40;99.90;;;;;;5096661;28;20186;-85
2021/01/23 08:37:47;;;;;;;11.10;6.60;;;5.40;99.90;;;;;;5096233;28;20181;-86
2021/01/23 08:40:16;;;;;;;10.07;7.10;;;5.50;99.90;;;;;;5096374;28;20175;-86
2021/01/23 08:42:42;;;;;;;13.90;6.47;;;5.50;99.90;;;;;;5096421;28;20190;-86
2021/01/23 08:45:08;;;;;;;8.83;7.17;;;5.60;99.90;;;;;;5096246;28;20257;-88
2021/01/23 08:47:34;;;;;;;12.80;7.70;;;5.60;99.90;;;;;;5096275;28;20783;-86
2021/01/23 08:50:00;;;;;;;11.50;6.40;;;5.60;99.90;;;;;;5095721;28;20281;-88
2021/01/23 08:52:25;;;;;;;10.90;6.53;;;5.70;99.90;;;;;;5096215;28;20166;-85
2021/01/23 08:54:51;;;;;;;11.27;7.43;;;5.70;99.90;;;;;;5096295;28;20645;-86
2021/01/23 08:57:16;;;;;;;12.60;6.67;;;5.80;99.90;;;;;;5101042;28;20531;-88
2021/01/23 08:59:42;;;;;;;11.87;7.40;;;5.90;99.90;;;;;;5097668;28;20178;-86
2021/01/23 09:02:10;;;;;;;14.83;7.87;;;6.10;99.90;;;;;;5095994;28;20182;-85
2021/01/23 09:04:37;;;;;;;11.83;7.13;;;6.00;99.90;;;;;;5095463;28;20178;-88
2021/01/23 09:07:04;;;;;;;10.20;6.63;;;6.20;99.90;;;;;;5095060;28;20232;-84
2021/01/23 09:09:30;;;;;;;9.63;7.10;;;6.00;99.90;;;;;;5095656;28;20238;-86
2021/01/23 09:11:55;;;;;;;13.40;6.33;;;6.00;99.90;;;;;;5097083;28;20280;-86
2021/01/23 09:14:21;;;;;;;11.60;6.70;;;6.00;99.90;;;;;;5095303;28;20766;-85
2021/01/23 09:16:46;;;;;;;11.73;6.53;;;6.20;99.90;;;;;;5095562;28;20250;-85
2021/01/23 09:19:12;;;;;;;14.17;6.53;;;5.90;99.90;;;;;;5096421;28;20251;-87
2021/01/23 09:21:39;;;;;;;12.43;6.60;;;6.00;99.90;;;;;;5100380;28;20807;-88
2021/01/23 09:24:07;;;;;;;9.27;5.83;;;6.10;99.90;;;;;;5097689;28;20187;-86
2021/01/23 09:26:33;;;;;;;9.73;6.57;;;6.00;99.90;;;;;;5097558;28;20175;-86
2021/01/23 09:28:58;;;;;;;9.10;6.37;;;6.20;99.90;;;;;;5101178;28;20298;-88
2021/01/23 09:31:24;;;;;;;11.27;6.90;;;6.50;99.90;;;;;;5095735;28;20196;-87
2021/01/23 09:33:50;;;;;;;11.47;6.60;;;6.20;99.90;;;;;;5095862;28;20202;-87
2021/01/23 09:36:16;;;;;;;12.90;6.53;;;6.20;99.90;;;;;;5097320;28;20167;-86
2021/01/23 09:38:42;;;;;;;11.57;6.57;;;6.30;99.90;;;;;;5097911;28;20163;-88
2021/01/23 09:41:10;;;;;;;9.47;5.63;;;6.30;99.90;;;;;;5096669;28;20177;-87
2021/01/23 09:43:36;;;;;;;8.53;5.60;;;6.30;99.90;;;;;;5097218;28;20170;-87
2021/01/23 09:46:02;;;;;;;10.10;5.60;;;6.30;99.90;;;;;;5096778;28;20204;-88
2021/01/23 09:48:27;;;;;;;15.37;6.50;;;6.50;99.90;;;;;;5098712;28;20171;-87
2021/01/23 09:50:54;;;;;;;11.03;6.13;;;6.20;99.90;;;;;;5097470;28;20247;-86
2021/01/23 09:53:19;;;;;;;11.77;6.30;;;6.20;99.90;;;;;;5097262;28;20693;-87
2021/01/23 09:55:45;;;;;;;11.60;5.33;;;6.20;99.90;;;;;;5096945;28;20170;-85
2021/01/23 09:58:11;;;;;;;9.37;5.73;;;6.30;99.90;;;;;;5095747;28;20181;-86
2021/01/23 10:00:36;;;;;;;9.13;5.27;;;6.40;99.90;;;;;;5088538;28;20174;-87
2021/01/23 10:03:04;;;;;;;13.67;6.20;;;6.30;99.90;;;;;;5094360;28;20171;-88
2021/01/23 10:05:29;;;;;;;11.30;5.90;;;6.40;99.90;;;;;;5089897;28;20171;-88
2021/01/23 10:07:55;;;;;;;10.53;5.87;;;6.50;99.90;;;;;;5092923;28;20175;-86
2021/01/23 10:10:21;;;;;;;10.53;5.67;;;6.50;99.90;;;;;;5093396;28;20218;-86
2021/01/23 10:12:46;;;;;;;9.00;5.40;;;6.50;99.90;;;;;;5099089;28;20559;-89
2021/01/23 10:15:12;;;;;;;9.17;5.57;;;6.70;99.90;;;;;;5097712;28;20186;-86
2021/01/23 10:17:38;;;;;;;11.17;5.43;;;6.60;99.90;;;;;;5116081;28;20627;-88
2021/01/23 10:20:05;;;;;;;11.03;5.83;;;6.70;99.90;;;;;;5114358;28;20233;-90
2021/01/23 10:22:31;;;;;;;13.63;6.17;;;6.90;99.90;;;;;;5115605;28;20848;-85
2021/01/23 10:24:57;;;;;;;11.77;5.83;;;7.00;99.90;;;;;;5116730;28;20190;-87
2021/01/23 10:27:24;;;;;;;10.50;5.70;;;7.00;99.90;;;;;;5116620;28;20174;-85
2021/01/23 10:29:51;;;;;;;10.10;5.37;;;7.10;99.90;;;;;;5097496;28;20219;-86
2021/01/23 10:32:17;;;;;;;10.53;5.60;;;7.20;99.90;;;;;;5098159;28;20623;-86
2021/01/23 10:34:42;;;;;;;7.20;4.57;;;7.30;99.90;;;;;;5099611;28;20208;-87
2021/01/23 10:37:08;;;;;;;11.73;5.57;;;7.30;99.90;;;;;;5120862;27;20162;-87
2021/01/23 10:39:34;;;;;;;9.83;4.50;;;7.30;99.90;;;;;;5119936;27;20220;-87
2021/01/23 10:42:00;;;;;;;12.77;5.30;;;7.40;99.90;;;;;;5118959;27;20185;-88
2021/01/23 10:44:25;;;;;;;7.47;4.27;;;7.50;99.90;;;;;;5131295;27;20760;-88
2021/01/23 10:46:51;;;;;;;9.63;5.03;;;7.30;99.90;;;;;;5115258;28;20178;-86
2021/01/23 10:49:17;;;;;;;8.87;4.83;;;7.30;99.90;;;;;;5118206;28;20195;-87
2021/01/23 10:51:42;;;;;;;10.00;4.37;;;7.30;99.90;;;;;;5115401;28;20240;-87
2021/01/23 10:54:08;;;;;;;9.97;4.53;;;7.60;99.90;;;;;;5114921;28;20277;-88
2021/01/23 10:56:34;;;;;;;10.57;5.20;;;7.60;99.90;;;;;;5099711;28;20176;-88
2021/01/23 10:59:02;;;;;;;8.47;4.40;;;7.60;99.90;;;;;;5095683;28;20179;-88
2021/01/23 11:01:29;;;;;;;10.07;4.60;;;7.70;99.90;;;;;;5095294;28;20167;-88
2021/01/23 11:03:55;;;;;;;11.17;4.23;;;7.80;99.90;;;;;;5096783;28;20171;-88
2021/01/23 11:06:23;;;;;;;10.10;4.33;;;7.60;99.90;;;;;;5098812;28;20179;-88
2021/01/23 11:08:49;;;;;;;7.97;4.07;;;7.60;99.90;;;;;;5098894;28;20266;-90
2021/01/23 11:11:15;;;;;;;11.00;4.50;;;7.50;99.90;;;;;;5098406;28;20182;-88
2021/01/23 11:13:41;;;;;;;8.53;3.93;;;7.30;99.90;;;;;;5098538;28;20673;-88
2021/01/23 11:16:08;;;;;;;9.03;3.70;;;7.30;99.90;;;;;;5099118;28;20265;-91
2021/01/23 11:18:33;;;;;;;8.77;4.03;;;7.40;99.90;;;;;;5099401;28;20178;-87
2021/01/23 11:20:59;;;;;;;9.33;4.67;;;7.60;99.90;;;;;;5098728;28;20225;-89
2021/01/23 11:23:25;;;;;;;7.57;4.67;;;7.80;99.90;;;;;;5097024;28;20195;-87
2021/01/23 11:25:51;;;;;;;13.00;4.37;;;7.90;99.90;;;;;;5098092;28;20183;-89
2021/01/23 11:28:16;;;;;;;11.73;4.97;;;8.00;99.90;;;;;;5136325;27;20179;-92
2021/01/23 11:30:42;;;;;;;9.17;4.13;;;7.90;99.90;;;;;;5100125;28;20167;-89
2021/01/23 11:33:07;;;;;;;9.07;3.67;;;8.10;99.90;;;;;;5104355;28;20234;-89
2021/01/23 11:35:33;;;;;;;11.23;4.13;;;8.10;99.90;;;;;;5117611;28;20198;-90
2021/01/23 11:38:02;;;;;;;11.23;5.70;;;8.10;99.90;;;;;;5101159;28;20186;-91
2021/01/23 11:40:29;;;;;;;10.07;4.07;;;8.20;99.90;;;;;;5101973;28;20174;-88
2021/01/23 11:42:55;;;;;;;13.70;4.30;;;8.40;99.90;;;;;;5100288;28;20306;-92
2021/01/23 11:45:20;;;;;;;7.00;3.70;;;8.40;99.90;;;;;;5103589;28;20263;-89
2021/01/23 11:47:46;;;;;;;9.50;4.47;;;8.20;99.90;;;;;;5111019;28;20199;-88
2021/01/23 11:50:12;;;;;;;9.17;3.40;;;8.20;99.90;;;;;;5116371;28;20182;-89
2021/01/23 11:52:37;;;;;;;11.10;3.90;;;7.80;99.90;;;;;;5115747;28;20248;-89
2021/01/23 11:55:04;;;;;;;8.97;4.57;;;7.70;99.90;;;;;;5115291;28;20261;-89
2021/01/23 11:57:30;;;;;;;15.27;3.83;;;7.60;99.90;;;;;;5114402;28;20182;-90
2021/01/23 11:59:55;;;;;;;7.40;3.63;;;7.70;99.90;;;;;;5114176;28;20178;-89
2021/01/23 12:02:22;;;;;;;12.97;4.60;;;7.70;99.90;;;;;;5123216;28;20171;-89
2021/01/23 12:04:49;;;;;;;8.40;3.60;;;7.70;99.90;;;;;;5110621;28;20174;-89
2021/01/23 12:07:16;;;;;;;10.00;4.13;;;7.70;99.90;;;;;;5097717;28;20175;-89
2021/01/23 12:09:42;;;;;;;8.90;3.87;;;7.70;99.90;;;;;;5097282;28;20327;-89
2021/01/23 12:12:08;;;;;;;8.33;3.57;;;7.80;99.90;;;;;;5100175;28;20261;-88
2021/01/23 12:14:34;;;;;;;11.00;4.33;;;7.70;99.90;;;;;;5098668;28;20256;-89
2021/01/23 12:17:00;;;;;;;10.07;3.87;;;7.70;99.90;;;;;;5097254;28;20305;-90
2021/01/23 12:19:26;;;;;;;8.13;4.23;;;7.70;99.90;;;;;;5131249;27;20194;-90
2021/01/23 12:21:51;;;;;;;9.67;4.10;;;7.60;99.90;;;;;;5096968;28;20614;-88
2021/01/23 12:24:17;;;;;;;9.40;4.03;;;7.70;99.90;;;;;;5097561;28;20222;-87
2021/01/23 12:26:43;;;;;;;12.33;4.27;;;7.70;99.90;;;;;;5097237;28;20174;-89
2021/01/23 12:29:08;;;;;;;8.43;3.77;;;7.50;99.90;;;;;;5096437;28;20200;-89
2021/01/23 12:31:34;;;;;;;12.33;4.00;;;7.40;99.90;;;;;;5095197;28;20597;-89
2021/01/23 12:34:00;;;;;;;8.77;3.40;;;7.30;99.90;;;;;;5084824;28;20264;-89
2021/01/23 12:36:26;;;;;;;11.67;3.80;;;7.20;99.90;;;;;;5088467;28;20166;-89
2021/01/23 12:38:52;;;;;;;13.93;3.67;;;7.00;99.90;;;;;;5094720;28;20180;-88
2021/01/23 12:41:17;;;;;;;7.83;3.50;;;6.90;99.90;;;;;;5083751;28;20186;-88
2021/01/23 12:43:43;;;;;;;8.27;3.63;;;6.90;99.90;;;;;;5086577;28;20166;-89
2021/01/23 12:46:09;;;;;;;12.00;4.00;;;7.00;99.90;;;;;;5117522;28;20175;-87
2021/01/23 12:48:34;;;;;;;14.50;3.93;;;7.00;99.90;;;;;;5115467;28;20165;-88
2021/01/23 12:51:00;;;;;;;7.80;4.13;;;7.20;99.90;;;;;;5093931;28;20528;-90
2021/01/23 12:53:26;;;;;;;9.13;4.20;;;7.20;99.90;;;;;;5083091;28;20199;-89